Dauntless Aviation
Airports Europe Netherlands
EHAM
AMS

Amsterdam Airport Schiphol

Amsterdam, NH, NETHERLANDS

Airport Info
Suggest Updated Information for this Airport

Location

Latitude / Longitude: 52°18'30"N / 4°45'50"E
  52°18.516'N / 4°45.834'E
  52.3086 / 4.7639

Nearby radio navigation aids

SPL SCHIPHOL VOR/DME. 161.8° 1.5nm from SPL to field.
SPY SPIJKERBOOR VOR/DME. 195.4° 14.3nm from SPY to field.

Runway Information

Runway 04 /22

Dimensions: 6608 x 148 ft.
Surface: ASP
 
Runway 04
Runway 22
Latitude: 52.300372 52.314025
Longitude: 4.783483 4.803025
Elevation: -13 ft. -13 ft.
Runway true heading: 39.2 219.2
 

Runway 06 /24

Dimensions: 11483 x 148 ft.
Surface: ASP
 
Runway 06
Runway 24
Latitude: 52.289122 52.304581
Longitude: 4.737269 4.777517
Elevation: -12 ft. -12 ft.
Runway true heading: 56.2 236.2
 

Runway 09 /27

Dimensions: 11329 x 148 ft.
Surface: ASP
 
Runway 09
Runway 27
Latitude: 52.316689 52.318375
Longitude: 4.747661 4.796892
Elevation: -12 ft. -12 ft.
Runway true heading: 85.2 265.2
 

Runway 18C/36C

Dimensions: 10827 x 148 ft.
Surface: ASP
 
Runway 18C
Runway 36C
Latitude: 52.331397 52.305831
Longitude: 4.740031 4.737683
Elevation: -12 ft. -12 ft.
Runway true heading: 181.2 1.2
 

Runway 18L/36R

Dimensions: 11155 x 148 ft.
Surface: ASP
 
Runway 18L
Runway 36R
Latitude: 52.31615 52.290825
Longitude: 4.779692 4.777347
Elevation: -12 ft. -12 ft.
Runway true heading: 181.2 1.2
 

Runway 18R/36L

Dimensions: 12468 x 197 ft.
Surface: ASP
 
Runway 18R
Runway 36L
Latitude: 52.360258 52.328581
Longitude: 4.711725 4.708836
Elevation: -13 ft. -13 ft.
Runway true heading: 181.2 1.2
 

Instrument Procedures

  Aircraft Parking/Docking Chart SCHIPHOL Centre
  Aircraft Parking/Docking Chart SCHIPHOL East K-Apron
  Aircraft Parking/Docking Chart SCHIPHOL East M-Apron
  Aircraft Parking/Docking Chart SCHIPHOL Centre U-Apron
  Aerodrome Ground Movement Chart
  Aerodrome Chart

STARs (Standard Terminal Arrivals)

  STAR-Instrument

IAPs (Instrument Approach Procedures)

  Night - RNAV Transition Chart via SOKSI 2A to Rwy 06
  Night - RNAV Transition Chart via NIRSI 2D or 2E to Rwy 18C or via NARIX 2C or NIRSI 3B or 1R to Rwy 18R
  RNAV Transition Chart via AM669 to Rwy 36R
  Visual Approach Chart VFR Procedures
  VFR Traffic Circuits
  ATC Surveillance Minimum Altitude Chart
  Aerodrome Obstacle Chart Type A Rwy 04-22
  Aerodrome Obstacle Chart Type A Rwy 06-24
  Aerodrome Obstacle Chart Type A Rwy 09-27
  Aerodrome Obstacle Chart Type A Rwy 18C-36C
  Aerodrome Obstacle Chart Type A Rwy 18L
  Aerodrome Obstacle Chart Type A Rwy 36L
  Precision Approach Terrain Chart Rwy 06
  Precision Approach Terrain Chart Rwy 18C
  Precision Approach Terrain Chart Rwy 18R
  Precision Approach Terrain Chart Rwy 36C
  Precision Approach Terrain Chart Rwy 36R
  Precision Approach Terrain Chart Rwy 27
  Aerodrome Information (Textual)
  RNP Rwy 04
  ILS CAT II and III or LOC Rwy 06
  Night - IAC SOKSI 2A Approach ILS CAT II and III Rwy 06
  RNP Rwy 06
  RNP Rwy 09
  ILS CAT II and III or LOC Rwy 18C
  RNP Rwy 18C
  Night - IAC NIRSI 2D Approach RNP Rwy 18C
  Night - IAC NIRSI 2E Approach ILS CAT II and III Rwy 18C
  ILS CAT II and III or LOC Rwy 18R
  Night - IAC NARIX 2C/ NIRSI 3B Approach ILS CAT II and III Rwy 18R
  RNP Rwy 18R
  Night - IAC NIRSI 1R Approach RNP Rwy 18R
  ILS or LOC Rwy 22
  CAT H ILS or LOC Rwy 22
  RNP Rwy 22
  RNP Rwy 24
  ILS CAT II and III or LOC Rwy 27
  RNP Rwy 27
  ILS CAT II and III or LOC Rwy 36C
  RNP Rwy 36C
  ILS CAT II and III or LOC Rwy 36R
  RNP Rwy 36R

Departure Procedures

  SID-Instrument Rwy 04
  SID-Instrument Rwy 06
  SID-Instrument Rwy 06 (SUPPLEMENTARY)
  SID-Instrument Rwy 09
  SID-Instrument Rwy 18C
  SID-Instrument Rwy 18L
  SID-Instrument Rwy 22
  SID-Instrument Rwy 24 East
  SID-Instrument Rwy 24 West
  SID-Instrument Rwy 27
  SID-Instrument Rwy 36C
  SID-Instrument Rwy 36L
  SID-Instrument Rwy 36L (SUPPLEMENTARY)
  SID-Instrument - OVERVIEW
Satellite photo at:
Airport distance calculator
From:
Weather Reports

METAR

EHAM

EHAM 181525Z 05003KT 330V090 5000 -SHRA FEW018 SCT025TCU BKN048 22/17 Q1013 BECMG 9999 NSW
EHRD
24.4nm S
EHRD 181525Z AUTO 35008KT 300V030 9999 FEW026CB BKN030 OVC049 24/17 Q1013 NOSIG
EHLE
28.9nm NE
EHLE 181525Z AUTO 36005KT 9999 -RA FEW022 BKN044 22/18 Q1013 NOSIG
EHKD
36.5nm N
EHKD 181525Z AUTO 05005KT 340V100 9999 NCD 22/16 Q1014 BLU TEMPO SCT016

TAF

EHAM
TAF EHAM 181112Z 1812/1918 36007KT 9999 SCT020 PROB30 1902/1907 4000 BR MIFG BECMG 1907/1910 26010KT PROB40 TEMPO 1909/1915 6000 RA SHRA BKN014 SCT018CB
EHRD
24.4nm S
TAF EHRD 181112Z 1812/1918 36007KT 9999 BKN020 PROB40 1902/1907 4000 BR MIFG BECMG 1907/1910 26010KT PROB40 TEMPO 1909/1915 6000 RA SHRA BKN014 SCT018CB
EHKD
36.5nm N
TAF EHKD 181224Z 1813/1901 06008KT 9999 SCT016 BECMG 1823/1901 4500 BR
Safelog

 

Dauntless Aviation

© 2007-2022 Dauntless Aviation, all rights reserved
Information provided via PilotNav comes from a variety of official and unofficial data sources. As errors are possible, do not use PilotNav for primary flight planning purposes. Verify any information that you receive via PilotNav with current and canonical charts and other official documents. The material in this database is subject to database copyrights held by Dauntless Aviation and may not be copied without the express permission of Dauntless Aviation - licenses for use of part of all of this data are available for purchase; enquire via the Dauntless Aviation helpdesk. A number of mechanisms and markers exist in the database to protect against and identify infringement / copyright. Automated queries against this website are strictly prohibited, and all activity is logged and analyzed.